sensor_id;sensor_type;location;lat;lon;timestamp;P1;durP1;ratioP1;P2;durP2;ratioP2
60292;SDS011;52402;52.670;6.750;2022-10-15T00:01:40;305.85;;;89.18;;
60292;SDS011;52402;52.670;6.750;2022-10-15T00:04:06;204.93;;;79.65;;
60292;SDS011;52402;52.670;6.750;2022-10-15T00:06:32;188.52;;;73.75;;
60292;SDS011;52402;52.670;6.750;2022-10-15T00:08:57;174.55;;;73.05;;
60292;SDS011;52402;52.670;6.750;2022-10-15T00:11:24;156.10;;;71.38;;
60292;SDS011;52402;52.670;6.750;2022-10-15T00:13:55;219.13;;;80.28;;
60292;SDS011;52402;52.670;6.750;2022-10-15T00:16:23;103.43;;;61.15;;
60292;SDS011;52402;52.670;6.750;2022-10-15T00:18:50;270.80;;;83.68;;
60292;SDS011;52402;52.670;6.750;2022-10-15T00:21:19;168.30;;;70.57;;
60292;SDS011;52402;52.670;6.750;2022-10-15T00:23:45;275.15;;;84.95;;
60292;SDS011;52402;52.670;6.750;2022-10-15T00:26:12;219.40;;;78.72;;
60292;SDS011;52402;52.670;6.750;2022-10-15T00:28:40;340.30;;;95.38;;
60292;SDS011;52402;52.670;6.750;2022-10-15T00:31:07;353.20;;;94.43;;
60292;SDS011;52402;52.670;6.750;2022-10-15T00:33:34;310.52;;;90.82;;
60292;SDS011;52402;52.670;6.750;2022-10-15T00:36:01;214.30;;;82.18;;
60292;SDS011;52402;52.670;6.750;2022-10-15T00:38:31;199.05;;;76.32;;
60292;SDS011;52402;52.670;6.750;2022-10-15T00:40:58;244.55;;;81.78;;
60292;SDS011;52402;52.670;6.750;2022-10-15T00:48:57;141.45;;;65.15;;
60292;SDS011;52402;52.670;6.750;2022-10-15T00:51:36;203.98;;;76.93;;
60292;SDS011;52402;52.670;6.750;2022-10-15T00:54:07;176.70;;;71.60;;
60292;SDS011;52402;52.670;6.750;2022-10-15T00:56:33;161.30;;;67.57;;
60292;SDS011;52402;52.670;6.750;2022-10-15T00:59:01;202.43;;;74.55;;
60292;SDS011;52402;52.670;6.750;2022-10-15T01:01:30;151.30;;;68.28;;
60292;SDS011;52402;52.670;6.750;2022-10-15T01:03:55;198.60;;;72.47;;
60292;SDS011;52402;52.670;6.750;2022-10-15T01:06:21;286.80;;;78.30;;
60292;SDS011;52402;52.670;6.750;2022-10-15T01:08:48;346.63;;;82.70;;
60292;SDS011;52402;52.670;6.750;2022-10-15T01:17:06;243.05;;;75.15;;
60292;SDS011;52402;52.670;6.750;2022-10-15T01:22:22;193.65;;;68.95;;
60292;SDS011;52402;52.670;6.750;2022-10-15T01:31:31;208.18;;;71.32;;
60292;SDS011;52402;52.670;6.750;2022-10-15T01:36:58;399.70;;;86.20;;
60292;SDS011;52402;52.670;6.750;2022-10-15T01:39:56;175.98;;;64.38;;
60292;SDS011;52402;52.670;6.750;2022-10-15T01:42:30;216.73;;;71.57;;
60292;SDS011;52402;52.670;6.750;2022-10-15T01:45:01;267.02;;;75.35;;
60292;SDS011;52402;52.670;6.750;2022-10-15T01:47:33;233.85;;;71.50;;
60292;SDS011;52402;52.670;6.750;2022-10-15T01:50:04;169.02;;;65.03;;
60292;SDS011;52402;52.670;6.750;2022-10-15T01:52:32;273.33;;;75.97;;
60292;SDS011;52402;52.670;6.750;2022-10-15T01:55:03;140.52;;;59.97;;
60292;SDS011;52402;52.670;6.750;2022-10-15T01:57:32;198.48;;;69.78;;
60292;SDS011;52402;52.670;6.750;2022-10-15T02:00:00;137.60;;;61.42;;
60292;SDS011;52402;52.670;6.750;2022-10-15T02:02:26;201.07;;;69.93;;
60292;SDS011;52402;52.670;6.750;2022-10-15T02:04:52;98.80;;;54.90;;
60292;SDS011;52402;52.670;6.750;2022-10-15T02:07:21;184.45;;;67.25;;
60292;SDS011;52402;52.670;6.750;2022-10-15T02:12:50;147.32;;;63.88;;
60292;SDS011;52402;52.670;6.750;2022-10-15T02:21:30;132.60;;;58.28;;
60292;SDS011;52402;52.670;6.750;2022-10-15T02:24:21;118.03;;;57.13;;
60292;SDS011;52402;52.670;6.750;2022-10-15T02:26:52;188.88;;;69.18;;
60292;SDS011;52402;52.670;6.750;2022-10-15T02:29:22;103.28;;;57.03;;
60292;SDS011;52402;52.670;6.750;2022-10-15T02:31:51;107.82;;;57.72;;
60292;SDS011;52402;52.670;6.750;2022-10-15T02:34:20;193.55;;;70.30;;
60292;SDS011;52402;52.670;6.750;2022-10-15T02:36:49;164.25;;;67.05;;
60292;SDS011;52402;52.670;6.750;2022-10-15T02:39:17;153.32;;;65.20;;
60292;SDS011;52402;52.670;6.750;2022-10-15T02:41:46;150.13;;;63.97;;
60292;SDS011;52402;52.670;6.750;2022-10-15T02:44:12;148.70;;;64.07;;
60292;SDS011;52402;52.670;6.750;2022-10-15T02:46:38;145.43;;;62.85;;
60292;SDS011;52402;52.670;6.750;2022-10-15T02:49:04;143.60;;;64.15;;
60292;SDS011;52402;52.670;6.750;2022-10-15T02:51:30;149.57;;;62.95;;
60292;SDS011;52402;52.670;6.750;2022-10-15T02:53:59;175.40;;;69.72;;
60292;SDS011;52402;52.670;6.750;2022-10-15T02:56:26;137.25;;;64.03;;
60292;SDS011;52402;52.670;6.750;2022-10-15T02:58:52;106.10;;;58.17;;
60292;SDS011;52402;52.670;6.750;2022-10-15T03:01:18;146.95;;;63.40;;
60292;SDS011;52402;52.670;6.750;2022-10-15T03:03:43;178.20;;;67.47;;
60292;SDS011;52402;52.670;6.750;2022-10-15T03:06:09;165.05;;;64.70;;
60292;SDS011;52402;52.670;6.750;2022-10-15T03:08:34;157.07;;;65.63;;
60292;SDS011;52402;52.670;6.750;2022-10-15T03:11:00;175.00;;;69.85;;
60292;SDS011;52402;52.670;6.750;2022-10-15T03:13:27;179.07;;;68.82;;
60292;SDS011;52402;52.670;6.750;2022-10-15T03:15:53;134.10;;;61.58;;
60292;SDS011;52402;52.670;6.750;2022-10-15T03:18:19;134.57;;;64.28;;
60292;SDS011;52402;52.670;6.750;2022-10-15T03:20:51;167.18;;;67.25;;
60292;SDS011;52402;52.670;6.750;2022-10-15T03:23:20;159.25;;;66.15;;
60292;SDS011;52402;52.670;6.750;2022-10-15T03:25:46;103.68;;;57.05;;
60292;SDS011;52402;52.670;6.750;2022-10-15T03:28:12;87.40;;;52.95;;
60292;SDS011;52402;52.670;6.750;2022-10-15T03:30:37;105.13;;;58.08;;
60292;SDS011;52402;52.670;6.750;2022-10-15T03:33:03;101.57;;;54.20;;
60292;SDS011;52402;52.670;6.750;2022-10-15T03:35:28;99.13;;;54.58;;
60292;SDS011;52402;52.670;6.750;2022-10-15T03:37:54;93.43;;;53.47;;
60292;SDS011;52402;52.670;6.750;2022-10-15T03:40:20;106.40;;;57.15;;
60292;SDS011;52402;52.670;6.750;2022-10-15T03:42:49;88.35;;;53.38;;
60292;SDS011;52402;52.670;6.750;2022-10-15T03:45:16;90.97;;;52.88;;
60292;SDS011;52402;52.670;6.750;2022-10-15T03:47:42;81.05;;;51.00;;
60292;SDS011;52402;52.670;6.750;2022-10-15T03:50:07;93.30;;;55.17;;
60292;SDS011;52402;52.670;6.750;2022-10-15T03:52:33;107.25;;;57.45;;
60292;SDS011;52402;52.670;6.750;2022-10-15T03:55:00;92.60;;;55.00;;
60292;SDS011;52402;52.670;6.750;2022-10-15T03:57:26;85.15;;;55.03;;
60292;SDS011;52402;52.670;6.750;2022-10-15T03:59:52;101.78;;;59.55;;
60292;SDS011;52402;52.670;6.750;2022-10-15T04:02:17;109.35;;;60.70;;
60292;SDS011;52402;52.670;6.750;2022-10-15T04:04:43;107.47;;;61.92;;
60292;SDS011;52402;52.670;6.750;2022-10-15T04:07:08;91.38;;;59.25;;
60292;SDS011;52402;52.670;6.750;2022-10-15T04:09:34;100.32;;;61.92;;
60292;SDS011;52402;52.670;6.750;2022-10-15T04:11:59;128.43;;;67.35;;
60292;SDS011;52402;52.670;6.750;2022-10-15T04:14:25;121.18;;;65.97;;
60292;SDS011;52402;52.670;6.750;2022-10-15T04:16:51;90.45;;;59.17;;
60292;SDS011;52402;52.670;6.750;2022-10-15T04:19:16;93.90;;;62.75;;
60292;SDS011;52402;52.670;6.750;2022-10-15T04:21:42;99.63;;;61.92;;
60292;SDS011;52402;52.670;6.750;2022-10-15T04:24:08;112.82;;;65.78;;
60292;SDS011;52402;52.670;6.750;2022-10-15T04:26:33;112.13;;;66.22;;
60292;SDS011;52402;52.670;6.750;2022-10-15T04:28:59;102.63;;;61.85;;
60292;SDS011;52402;52.670;6.750;2022-10-15T04:31:25;117.85;;;67.22;;
60292;SDS011;52402;52.670;6.750;2022-10-15T04:33:50;128.52;;;68.88;;
60292;SDS011;52402;52.670;6.750;2022-10-15T04:36:16;135.55;;;68.82;;
60292;SDS011;52402;52.670;6.750;2022-10-15T04:38:41;133.45;;;69.20;;
60292;SDS011;52402;52.670;6.750;2022-10-15T04:41:08;93.65;;;60.28;;
60292;SDS011;52402;52.670;6.750;2022-10-15T04:43:35;123.32;;;68.15;;
60292;SDS011;52402;52.670;6.750;2022-10-15T04:46:04;144.30;;;69.45;;
60292;SDS011;52402;52.670;6.750;2022-10-15T04:48:31;124.13;;;66.55;;
60292;SDS011;52402;52.670;6.750;2022-10-15T04:51:17;122.78;;;68.85;;
60292;SDS011;52402;52.670;6.750;2022-10-15T04:53:44;143.50;;;72.00;;
60292;SDS011;52402;52.670;6.750;2022-10-15T04:56:11;131.15;;;68.28;;
60292;SDS011;52402;52.670;6.750;2022-10-15T04:58:39;133.85;;;72.20;;
60292;SDS011;52402;52.670;6.750;2022-10-15T05:01:06;164.68;;;77.68;;
60292;SDS011;52402;52.670;6.750;2022-10-15T05:03:37;132.93;;;69.38;;
60292;SDS011;52402;52.670;6.750;2022-10-15T05:06:05;164.27;;;75.93;;
60292;SDS011;52402;52.670;6.750;2022-10-15T05:08:39;162.97;;;74.67;;
60292;SDS011;52402;52.670;6.750;2022-10-15T05:11:15;134.55;;;72.72;;
60292;SDS011;52402;52.670;6.750;2022-10-15T05:13:48;131.50;;;69.97;;
60292;SDS011;52402;52.670;6.750;2022-10-15T05:16:15;156.57;;;73.80;;
60292;SDS011;52402;52.670;6.750;2022-10-15T05:18:42;143.18;;;71.72;;
60292;SDS011;52402;52.670;6.750;2022-10-15T05:21:08;173.45;;;77.65;;
60292;SDS011;52402;52.670;6.750;2022-10-15T05:23:35;148.32;;;73.75;;
60292;SDS011;52402;52.670;6.750;2022-10-15T05:26:05;121.10;;;63.90;;
60292;SDS011;52402;52.670;6.750;2022-10-15T05:28:38;159.77;;;72.80;;
60292;SDS011;52402;52.670;6.750;2022-10-15T05:33:37;130.68;;;70.25;;
60292;SDS011;52402;52.670;6.750;2022-10-15T05:36:07;164.00;;;78.47;;
60292;SDS011;52402;52.670;6.750;2022-10-15T05:38:33;150.25;;;74.43;;
60292;SDS011;52402;52.670;6.750;2022-10-15T05:40:59;145.75;;;72.88;;
60292;SDS011;52402;52.670;6.750;2022-10-15T05:43:24;222.00;;;86.05;;
60292;SDS011;52402;52.670;6.750;2022-10-15T05:45:54;147.98;;;72.90;;
60292;SDS011;52402;52.670;6.750;2022-10-15T05:48:20;160.45;;;74.40;;
60292;SDS011;52402;52.670;6.750;2022-10-15T05:50:46;122.38;;;65.50;;
60292;SDS011;52402;52.670;6.750;2022-10-15T05:53:11;132.57;;;69.15;;
60292;SDS011;52402;52.670;6.750;2022-10-15T05:55:37;116.55;;;64.90;;
60292;SDS011;52402;52.670;6.750;2022-10-15T05:58:02;138.73;;;69.57;;
60292;SDS011;52402;52.670;6.750;2022-10-15T06:00:29;129.73;;;66.85;;
60292;SDS011;52402;52.670;6.750;2022-10-15T06:02:55;132.90;;;69.03;;
60292;SDS011;52402;52.670;6.750;2022-10-15T06:05:20;152.95;;;73.28;;
60292;SDS011;52402;52.670;6.750;2022-10-15T06:07:46;129.52;;;67.70;;
60292;SDS011;52402;52.670;6.750;2022-10-15T06:10:11;115.28;;;64.53;;
60292;SDS011;52402;52.670;6.750;2022-10-15T06:12:37;108.22;;;63.13;;
60292;SDS011;52402;52.670;6.750;2022-10-15T06:15:05;135.98;;;70.18;;
60292;SDS011;52402;52.670;6.750;2022-10-15T06:17:31;105.55;;;63.00;;
60292;SDS011;52402;52.670;6.750;2022-10-15T06:19:57;107.78;;;64.53;;
60292;SDS011;52402;52.670;6.750;2022-10-15T06:22:22;113.60;;;66.50;;
60292;SDS011;52402;52.670;6.750;2022-10-15T06:24:48;109.32;;;65.82;;
60292;SDS011;52402;52.670;6.750;2022-10-15T06:27:13;98.95;;;63.67;;
60292;SDS011;52402;52.670;6.750;2022-10-15T06:29:39;103.28;;;62.88;;
60292;SDS011;52402;52.670;6.750;2022-10-15T06:32:08;97.28;;;62.40;;
60292;SDS011;52402;52.670;6.750;2022-10-15T06:34:35;90.63;;;62.42;;
60292;SDS011;52402;52.670;6.750;2022-10-15T06:37:02;116.80;;;70.05;;
60292;SDS011;52402;52.670;6.750;2022-10-15T06:39:28;98.95;;;64.80;;
60292;SDS011;52402;52.670;6.750;2022-10-15T06:41:54;110.30;;;68.57;;
60292;SDS011;52402;52.670;6.750;2022-10-15T06:44:20;108.38;;;67.18;;
60292;SDS011;52402;52.670;6.750;2022-10-15T06:46:45;98.15;;;63.67;;
60292;SDS011;52402;52.670;6.750;2022-10-15T06:49:11;105.53;;;67.38;;
60292;SDS011;52402;52.670;6.750;2022-10-15T06:51:37;132.55;;;74.57;;
60292;SDS011;52402;52.670;6.750;2022-10-15T06:54:03;100.80;;;65.95;;
60292;SDS011;52402;52.670;6.750;2022-10-15T06:56:28;111.63;;;70.03;;
60292;SDS011;52402;52.670;6.750;2022-10-15T06:58:54;120.32;;;70.53;;
60292;SDS011;52402;52.670;6.750;2022-10-15T07:01:20;147.32;;;76.30;;
60292;SDS011;52402;52.670;6.750;2022-10-15T07:03:49;120.63;;;73.65;;
60292;SDS011;52402;52.670;6.750;2022-10-15T07:06:15;101.03;;;65.75;;
60292;SDS011;52402;52.670;6.750;2022-10-15T07:08:41;130.70;;;73.82;;
60292;SDS011;52402;52.670;6.750;2022-10-15T07:11:07;167.10;;;80.03;;
60292;SDS011;52402;52.670;6.750;2022-10-15T07:13:36;133.52;;;74.03;;
60292;SDS011;52402;52.670;6.750;2022-10-15T07:16:08;129.45;;;75.40;;
60292;SDS011;52402;52.670;6.750;2022-10-15T07:18:35;99.03;;;65.85;;
60292;SDS011;52402;52.670;6.750;2022-10-15T07:21:04;94.47;;;64.60;;
60292;SDS011;52402;52.670;6.750;2022-10-15T07:23:31;91.57;;;63.00;;
60292;SDS011;52402;52.670;6.750;2022-10-15T07:25:58;86.00;;;64.43;;
60292;SDS011;52402;52.670;6.750;2022-10-15T07:28:24;99.40;;;69.07;;
60292;SDS011;52402;52.670;6.750;2022-10-15T07:30:50;83.63;;;63.92;;
60292;SDS011;52402;52.670;6.750;2022-10-15T07:33:17;88.63;;;64.53;;
60292;SDS011;52402;52.670;6.750;2022-10-15T07:35:42;85.10;;;63.67;;
60292;SDS011;52402;52.670;6.750;2022-10-15T07:38:08;116.88;;;75.53;;
60292;SDS011;52402;52.670;6.750;2022-10-15T07:40:34;88.53;;;66.13;;
60292;SDS011;52402;52.670;6.750;2022-10-15T07:42:59;84.85;;;66.45;;
60292;SDS011;52402;52.670;6.750;2022-10-15T07:45:25;96.88;;;70.20;;
60292;SDS011;52402;52.670;6.750;2022-10-15T07:47:52;91.75;;;68.22;;
60292;SDS011;52402;52.670;6.750;2022-10-15T07:50:19;131.13;;;80.10;;
60292;SDS011;52402;52.670;6.750;2022-10-15T07:52:45;97.65;;;69.60;;
60292;SDS011;52402;52.670;6.750;2022-10-15T07:55:11;86.47;;;65.55;;
60292;SDS011;52402;52.670;6.750;2022-10-15T07:57:37;116.88;;;76.80;;
60292;SDS011;52402;52.670;6.750;2022-10-15T08:00:03;89.90;;;67.07;;
60292;SDS011;52402;52.670;6.750;2022-10-15T08:02:29;85.88;;;66.22;;
60292;SDS011;52402;52.670;6.750;2022-10-15T08:04:55;92.63;;;71.45;;
60292;SDS011;52402;52.670;6.750;2022-10-15T08:07:20;94.78;;;73.05;;
60292;SDS011;52402;52.670;6.750;2022-10-15T08:09:46;93.60;;;69.82;;
60292;SDS011;52402;52.670;6.750;2022-10-15T08:12:12;85.00;;;66.88;;
60292;SDS011;52402;52.670;6.750;2022-10-15T08:14:38;84.75;;;67.80;;
60292;SDS011;52402;52.670;6.750;2022-10-15T08:17:05;84.60;;;66.35;;
60292;SDS011;52402;52.670;6.750;2022-10-15T08:19:30;82.63;;;64.88;;
60292;SDS011;52402;52.670;6.750;2022-10-15T08:21:57;99.90;;;71.07;;
60292;SDS011;52402;52.670;6.750;2022-10-15T08:24:23;83.88;;;66.88;;
60292;SDS011;52402;52.670;6.750;2022-10-15T08:26:48;82.57;;;65.85;;
60292;SDS011;52402;52.670;6.750;2022-10-15T08:29:14;75.00;;;60.33;;
60292;SDS011;52402;52.670;6.750;2022-10-15T08:31:42;76.65;;;62.85;;
60292;SDS011;52402;52.670;6.750;2022-10-15T08:34:08;72.68;;;59.45;;
60292;SDS011;52402;52.670;6.750;2022-10-15T08:36:33;73.07;;;58.97;;
60292;SDS011;52402;52.670;6.750;2022-10-15T08:38:59;76.15;;;59.67;;
60292;SDS011;52402;52.670;6.750;2022-10-15T08:41:28;70.78;;;56.53;;
60292;SDS011;52402;52.670;6.750;2022-10-15T08:43:58;69.53;;;55.17;;
60292;SDS011;52402;52.670;6.750;2022-10-15T08:46:43;80.25;;;59.65;;
60292;SDS011;52402;52.670;6.750;2022-10-15T08:52:33;83.10;;;58.67;;
60292;SDS011;52402;52.670;6.750;2022-10-15T08:55:08;86.15;;;56.60;;
60292;SDS011;52402;52.670;6.750;2022-10-15T09:03:10;89.03;;;57.72;;
60292;SDS011;52402;52.670;6.750;2022-10-15T09:14:28;83.38;;;53.17;;
60292;SDS011;52402;52.670;6.750;2022-10-15T09:17:04;89.35;;;55.53;;
60292;SDS011;52402;52.670;6.750;2022-10-15T09:19:38;88.15;;;56.95;;
60292;SDS011;52402;52.670;6.750;2022-10-15T09:22:05;102.00;;;59.97;;
60292;SDS011;52402;52.670;6.750;2022-10-15T09:24:37;90.63;;;57.35;;
60292;SDS011;52402;52.670;6.750;2022-10-15T09:32:36;89.80;;;57.38;;
60292;SDS011;52402;52.670;6.750;2022-10-15T09:35:21;101.38;;;62.85;;
60292;SDS011;52402;52.670;6.750;2022-10-15T09:44:27;95.68;;;59.35;;
60292;SDS011;52402;52.670;6.750;2022-10-15T09:47:01;86.55;;;55.58;;
60292;SDS011;52402;52.670;6.750;2022-10-15T09:49:46;81.28;;;54.00;;
60292;SDS011;52402;52.670;6.750;2022-10-15T09:52:18;70.30;;;52.03;;
60292;SDS011;52402;52.670;6.750;2022-10-15T09:55:11;77.55;;;51.80;;
60292;SDS011;52402;52.670;6.750;2022-10-15T09:57:54;64.97;;;49.58;;
60292;SDS011;52402;52.670;6.750;2022-10-15T10:00:23;59.50;;;46.55;;
60292;SDS011;52402;52.670;6.750;2022-10-15T10:03:05;57.65;;;44.67;;
60292;SDS011;52402;52.670;6.750;2022-10-15T10:05:38;56.90;;;44.78;;
60292;SDS011;52402;52.670;6.750;2022-10-15T10:08:38;53.10;;;42.97;;
60292;SDS011;52402;52.670;6.750;2022-10-15T10:11:02;50.00;;;41.15;;
60292;SDS011;52402;52.670;6.750;2022-10-15T10:13:35;47.47;;;39.65;;
60292;SDS011;52402;52.670;6.750;2022-10-15T10:16:04;43.03;;;37.28;;
60292;SDS011;52402;52.670;6.750;2022-10-15T10:21:01;43.05;;;38.33;;
60292;SDS011;52402;52.670;6.750;2022-10-15T10:23:36;42.72;;;36.65;;
60292;SDS011;52402;52.670;6.750;2022-10-15T10:26:07;37.47;;;33.53;;
60292;SDS011;52402;52.670;6.750;2022-10-15T10:31:09;39.50;;;34.60;;
60292;SDS011;52402;52.670;6.750;2022-10-15T10:36:24;36.90;;;33.03;;
60292;SDS011;52402;52.670;6.750;2022-10-15T10:41:49;34.75;;;31.13;;
60292;SDS011;52402;52.670;6.750;2022-10-15T10:44:30;33.25;;;29.52;;
60292;SDS011;52402;52.670;6.750;2022-10-15T10:47:02;33.47;;;29.85;;
60292;SDS011;52402;52.670;6.750;2022-10-15T10:49:47;32.60;;;29.10;;
60292;SDS011;52402;52.670;6.750;2022-10-15T10:52:27;34.42;;;29.27;;
60292;SDS011;52402;52.670;6.750;2022-10-15T10:57:46;29.20;;;26.15;;
60292;SDS011;52402;52.670;6.750;2022-10-15T11:00:24;29.08;;;25.98;;
60292;SDS011;52402;52.670;6.750;2022-10-15T11:02:59;30.05;;;26.88;;
60292;SDS011;52402;52.670;6.750;2022-10-15T11:05:25;30.52;;;27.25;;
60292;SDS011;52402;52.670;6.750;2022-10-15T11:08:02;30.58;;;27.30;;
60292;SDS011;52402;52.670;6.750;2022-10-15T11:14:02;29.85;;;26.65;;
60292;SDS011;52402;52.670;6.750;2022-10-15T11:16:26;30.45;;;27.20;;
60292;SDS011;52402;52.670;6.750;2022-10-15T11:19:09;30.98;;;27.67;;
60292;SDS011;52402;52.670;6.750;2022-10-15T11:21:58;32.83;;;28.15;;
60292;SDS011;52402;52.670;6.750;2022-10-15T11:29:56;26.95;;;23.13;;
60292;SDS011;52402;52.670;6.750;2022-10-15T11:55:21;26.50;;;23.70;;
60292;SDS011;52402;52.670;6.750;2022-10-15T11:57:53;26.85;;;24.02;;
60292;SDS011;52402;52.670;6.750;2022-10-15T12:03:18;26.58;;;23.67;;
60292;SDS011;52402;52.670;6.750;2022-10-15T12:05:52;27.33;;;24.35;;
60292;SDS011;52402;52.670;6.750;2022-10-15T12:08:22;28.45;;;24.67;;
60292;SDS011;52402;52.670;6.750;2022-10-15T12:10:56;28.60;;;24.00;;
60292;SDS011;52402;52.670;6.750;2022-10-15T12:16:24;28.75;;;24.50;;
60292;SDS011;52402;52.670;6.750;2022-10-15T12:19:14;32.70;;;26.55;;
60292;SDS011;52402;52.670;6.750;2022-10-15T12:27:15;31.23;;;26.77;;
60292;SDS011;52402;52.670;6.750;2022-10-15T12:29:50;32.63;;;27.83;;
60292;SDS011;52402;52.670;6.750;2022-10-15T12:32:29;35.88;;;29.83;;
60292;SDS011;52402;52.670;6.750;2022-10-15T12:35:02;35.05;;;28.85;;
60292;SDS011;52402;52.670;6.750;2022-10-15T12:37:31;39.58;;;30.52;;
60292;SDS011;52402;52.670;6.750;2022-10-15T12:40:00;33.07;;;28.37;;
60292;SDS011;52402;52.670;6.750;2022-10-15T12:42:30;33.22;;;28.20;;
60292;SDS011;52402;52.670;6.750;2022-10-15T12:45:02;35.50;;;29.77;;
60292;SDS011;52402;52.670;6.750;2022-10-15T12:50:22;40.65;;;29.50;;
60292;SDS011;52402;52.670;6.750;2022-10-15T12:52:51;31.65;;;26.20;;
60292;SDS011;52402;52.670;6.750;2022-10-15T12:58:00;36.00;;;27.98;;
60292;SDS011;52402;52.670;6.750;2022-10-15T13:00:44;35.50;;;28.67;;
60292;SDS011;52402;52.670;6.750;2022-10-15T13:03:15;30.10;;;26.38;;
60292;SDS011;52402;52.670;6.750;2022-10-15T13:06:35;29.75;;;26.58;;
60292;SDS011;52402;52.670;6.750;2022-10-15T13:09:13;31.58;;;27.45;;
60292;SDS011;52402;52.670;6.750;2022-10-15T13:11:49;33.15;;;27.98;;
60292;SDS011;52402;52.670;6.750;2022-10-15T13:14:31;31.08;;;27.70;;
60292;SDS011;52402;52.670;6.750;2022-10-15T13:16:58;30.40;;;27.25;;
60292;SDS011;52402;52.670;6.750;2022-10-15T13:19:35;31.75;;;28.45;;
60292;SDS011;52402;52.670;6.750;2022-10-15T13:22:04;34.88;;;29.70;;
60292;SDS011;52402;52.670;6.750;2022-10-15T13:24:38;30.60;;;27.52;;
60292;SDS011;52402;52.670;6.750;2022-10-15T13:27:26;30.13;;;27.10;;
60292;SDS011;52402;52.670;6.750;2022-10-15T13:32:35;31.83;;;29.02;;
60292;SDS011;52402;52.670;6.750;2022-10-15T13:35:11;30.15;;;27.45;;
60292;SDS011;52402;52.670;6.750;2022-10-15T13:37:40;29.83;;;27.20;;
60292;SDS011;52402;52.670;6.750;2022-10-15T13:40:15;31.17;;;28.52;;
60292;SDS011;52402;52.670;6.750;2022-10-15T13:42:59;28.63;;;26.27;;
60292;SDS011;52402;52.670;6.750;2022-10-15T13:45:26;29.13;;;26.65;;
60292;SDS011;52402;52.670;6.750;2022-10-15T13:47:53;27.90;;;25.50;;
60292;SDS011;52402;52.670;6.750;2022-10-15T13:55:36;23.35;;;21.45;;
60292;SDS011;52402;52.670;6.750;2022-10-15T13:58:14;23.20;;;21.30;;
60292;SDS011;52402;52.670;6.750;2022-10-15T14:01:17;22.33;;;20.52;;
60292;SDS011;52402;52.670;6.750;2022-10-15T14:03:52;21.45;;;19.75;;
60292;SDS011;52402;52.670;6.750;2022-10-15T14:08:53;17.95;;;16.45;;
60292;SDS011;52402;52.670;6.750;2022-10-15T14:11:41;16.55;;;15.20;;
60292;SDS011;52402;52.670;6.750;2022-10-15T14:16:58;15.88;;;14.48;;
60292;SDS011;52402;52.670;6.750;2022-10-15T14:19:26;16.80;;;15.40;;
60292;SDS011;52402;52.670;6.750;2022-10-15T14:21:56;15.52;;;14.05;;
60292;SDS011;52402;52.670;6.750;2022-10-15T14:27:43;14.77;;;13.38;;
60292;SDS011;52402;52.670;6.750;2022-10-15T14:29:53;13.18;;;12.07;;
60292;SDS011;52402;52.670;6.750;2022-10-15T14:34:59;13.18;;;11.98;;
60292;SDS011;52402;52.670;6.750;2022-10-15T14:40:22;14.32;;;13.02;;
60292;SDS011;52402;52.670;6.750;2022-10-15T14:42:48;13.30;;;12.10;;
60292;SDS011;52402;52.670;6.750;2022-10-15T14:45:26;13.82;;;12.63;;
60292;SDS011;52402;52.670;6.750;2022-10-15T14:47:54;12.85;;;11.65;;
60292;SDS011;52402;52.670;6.750;2022-10-15T14:50:32;14.68;;;13.15;;
60292;SDS011;52402;52.670;6.750;2022-10-15T14:53:04;14.93;;;13.13;;
60292;SDS011;52402;52.670;6.750;2022-10-15T14:55:33;13.63;;;12.32;;
60292;SDS011;52402;52.670;6.750;2022-10-15T14:58:08;15.18;;;13.70;;
60292;SDS011;52402;52.670;6.750;2022-10-15T15:00:39;15.05;;;13.70;;
60292;SDS011;52402;52.670;6.750;2022-10-15T15:03:12;14.90;;;13.35;;
60292;SDS011;52402;52.670;6.750;2022-10-15T15:05:44;13.30;;;11.98;;
60292;SDS011;52402;52.670;6.750;2022-10-15T15:08:11;12.32;;;11.20;;
60292;SDS011;52402;52.670;6.750;2022-10-15T15:10:38;13.10;;;11.70;;
60292;SDS011;52402;52.670;6.750;2022-10-15T15:13:03;12.40;;;11.20;;
60292;SDS011;52402;52.670;6.750;2022-10-15T15:15:29;13.20;;;10.75;;
60292;SDS011;52402;52.670;6.750;2022-10-15T15:17:54;15.20;;;12.13;;
60292;SDS011;52402;52.670;6.750;2022-10-15T15:20:20;14.75;;;12.50;;
60292;SDS011;52402;52.670;6.750;2022-10-15T15:22:46;15.10;;;13.50;;
60292;SDS011;52402;52.670;6.750;2022-10-15T15:25:16;13.35;;;11.95;;
60292;SDS011;52402;52.670;6.750;2022-10-15T15:27:44;12.25;;;10.88;;
60292;SDS011;52402;52.670;6.750;2022-10-15T15:30:15;12.50;;;10.95;;
60292;SDS011;52402;52.670;6.750;2022-10-15T15:32:43;13.73;;;11.35;;
60292;SDS011;52402;52.670;6.750;2022-10-15T15:35:15;11.20;;;9.93;;
60292;SDS011;52402;52.670;6.750;2022-10-15T15:37:59;12.93;;;10.48;;
60292;SDS011;52402;52.670;6.750;2022-10-15T15:40:25;13.93;;;11.55;;
60292;SDS011;52402;52.670;6.750;2022-10-15T15:42:51;12.45;;;11.15;;
60292;SDS011;52402;52.670;6.750;2022-10-15T15:45:18;12.45;;;10.98;;
60292;SDS011;52402;52.670;6.750;2022-10-15T15:47:45;14.18;;;11.88;;
60292;SDS011;52402;52.670;6.750;2022-10-15T15:50:11;13.32;;;11.68;;
60292;SDS011;52402;52.670;6.750;2022-10-15T15:52:38;13.63;;;11.68;;
60292;SDS011;52402;52.670;6.750;2022-10-15T15:55:03;11.95;;;10.65;;
60292;SDS011;52402;52.670;6.750;2022-10-15T15:57:29;13.73;;;11.85;;
60292;SDS011;52402;52.670;6.750;2022-10-15T15:59:55;12.63;;;11.13;;
60292;SDS011;52402;52.670;6.750;2022-10-15T16:02:21;12.85;;;10.93;;
60292;SDS011;52402;52.670;6.750;2022-10-15T16:04:46;12.80;;;10.98;;
60292;SDS011;52402;52.670;6.750;2022-10-15T16:07:12;12.65;;;11.32;;
60292;SDS011;52402;52.670;6.750;2022-10-15T16:09:37;12.77;;;10.80;;
60292;SDS011;52402;52.670;6.750;2022-10-15T16:12:04;15.02;;;11.95;;
60292;SDS011;52402;52.670;6.750;2022-10-15T16:14:30;13.70;;;11.88;;
60292;SDS011;52402;52.670;6.750;2022-10-15T16:16:56;13.05;;;11.10;;
60292;SDS011;52402;52.670;6.750;2022-10-15T16:19:23;13.60;;;10.90;;
60292;SDS011;52402;52.670;6.750;2022-10-15T16:21:52;14.07;;;11.57;;
60292;SDS011;52402;52.670;6.750;2022-10-15T16:24:18;13.35;;;12.02;;
60292;SDS011;52402;52.670;6.750;2022-10-15T16:26:43;15.57;;;13.38;;
60292;SDS011;52402;52.670;6.750;2022-10-15T16:29:09;13.98;;;12.25;;
60292;SDS011;52402;52.670;6.750;2022-10-15T16:31:35;15.90;;;13.32;;
60292;SDS011;52402;52.670;6.750;2022-10-15T16:34:04;14.55;;;11.77;;
60292;SDS011;52402;52.670;6.750;2022-10-15T16:36:30;13.60;;;12.20;;
60292;SDS011;52402;52.670;6.750;2022-10-15T16:38:56;13.23;;;11.82;;
60292;SDS011;52402;52.670;6.750;2022-10-15T16:41:22;16.65;;;13.20;;
60292;SDS011;52402;52.670;6.750;2022-10-15T16:43:48;16.08;;;13.00;;
60292;SDS011;52402;52.670;6.750;2022-10-15T16:46:15;14.52;;;12.90;;
60292;SDS011;52402;52.670;6.750;2022-10-15T16:48:42;16.88;;;13.50;;
60292;SDS011;52402;52.670;6.750;2022-10-15T16:51:09;16.10;;;13.38;;
60292;SDS011;52402;52.670;6.750;2022-10-15T16:53:39;14.90;;;13.18;;
60292;SDS011;52402;52.670;6.750;2022-10-15T16:56:16;14.35;;;12.45;;
60292;SDS011;52402;52.670;6.750;2022-10-15T16:58:47;16.58;;;14.18;;